createdAt,value
2019-03-26T00:01:48.351Z,99.90
2019-03-26T00:04:20.014Z,99.90
2019-03-26T00:06:52.207Z,99.90
2019-03-26T00:09:23.969Z,99.90
2019-03-26T00:11:55.886Z,99.90
2019-03-26T00:14:27.496Z,99.90
2019-03-26T00:16:59.230Z,99.90
2019-03-26T00:19:30.893Z,99.90
2019-03-26T00:22:02.714Z,99.90
2019-03-26T00:24:34.305Z,99.90
2019-03-26T00:27:07.794Z,99.90
2019-03-26T00:29:39.756Z,99.90
2019-03-26T00:32:11.696Z,99.90
2019-03-26T00:34:43.301Z,99.90
2019-03-26T00:37:15.114Z,99.90
2019-03-26T00:39:46.699Z,99.90
2019-03-26T00:42:18.739Z,99.90
2019-03-26T00:44:50.414Z,99.90
2019-03-26T00:47:22.253Z,99.90
2019-03-26T00:49:53.898Z,99.90
2019-03-26T00:52:25.775Z,99.90
2019-03-26T00:54:58.452Z,99.90
2019-03-26T00:57:30.310Z,99.90
2019-03-26T01:00:02.003Z,99.90
2019-03-26T01:02:33.936Z,99.90
2019-03-26T01:05:05.706Z,99.90
2019-03-26T01:07:37.760Z,99.90
2019-03-26T01:10:13.516Z,99.90
2019-03-26T01:12:45.478Z,99.90
2019-03-26T01:15:17.160Z,99.90
2019-03-26T01:17:49.093Z,99.90
2019-03-26T01:20:20.689Z,99.90
2019-03-26T01:22:52.516Z,99.90
2019-03-26T01:25:24.382Z,99.90
2019-03-26T01:27:56.192Z,99.90
2019-03-26T01:30:27.825Z,99.90
2019-03-26T01:32:59.650Z,99.90
2019-03-26T01:35:31.334Z,99.90
2019-03-26T01:38:03.177Z,99.90
2019-03-26T01:40:34.816Z,99.90
2019-03-26T01:43:06.712Z,99.90
2019-03-26T01:45:38.347Z,99.90
2019-03-26T01:48:10.323Z,99.90
2019-03-26T01:50:42.008Z,99.90
2019-03-26T01:53:13.930Z,99.90
2019-03-26T01:55:45.560Z,99.90
2019-03-26T01:58:17.369Z,99.90
2019-03-26T02:00:49.062Z,99.90
2019-03-26T02:03:20.910Z,99.90
2019-03-26T02:05:52.587Z,99.90
2019-03-26T02:08:24.372Z,99.90
2019-03-26T02:10:56.060Z,99.90
2019-03-26T02:13:28.862Z,99.90
2019-03-26T02:16:00.966Z,99.90
2019-03-26T02:18:32.882Z,99.90
2019-03-26T02:21:06.144Z,99.90
2019-03-26T02:23:37.938Z,99.90
2019-03-26T02:26:09.674Z,99.90
2019-03-26T02:28:41.743Z,99.90
2019-03-26T02:31:13.409Z,99.90
2019-03-26T02:33:45.251Z,99.90
2019-03-26T02:36:16.927Z,99.90
2019-03-26T02:38:49.182Z,99.90
2019-03-26T02:41:20.862Z,99.90
2019-03-26T02:43:52.816Z,99.90
2019-03-26T02:46:24.537Z,99.90
2019-03-26T02:48:56.313Z,99.90
2019-03-26T02:51:28.050Z,99.90
2019-03-26T02:53:59.744Z,99.90
2019-03-26T02:56:31.419Z,99.90
2019-03-26T02:59:03.202Z,99.90
2019-03-26T03:01:34.937Z,99.90
2019-03-26T03:04:06.689Z,99.90
2019-03-26T03:06:38.365Z,99.90
2019-03-26T03:09:10.203Z,99.90
2019-03-26T03:11:41.893Z,99.90
2019-03-26T03:14:13.915Z,99.90
2019-03-26T03:16:45.521Z,99.90
2019-03-26T03:19:17.249Z,99.90
2019-03-26T03:21:48.895Z,99.90
2019-03-26T03:24:20.856Z,99.90
2019-03-26T03:26:52.525Z,99.90
2019-03-26T03:29:25.697Z,99.90
2019-03-26T03:31:57.433Z,99.90
2019-03-26T03:34:29.317Z,99.90
2019-03-26T03:37:01.103Z,99.90
2019-03-26T03:39:33.350Z,99.90
2019-03-26T03:42:07.808Z,99.90
2019-03-26T03:44:39.735Z,99.90
2019-03-26T03:47:14.142Z,99.90
2019-03-26T03:49:46.340Z,99.90
2019-03-26T03:52:21.050Z,99.90
2019-03-26T03:54:54.376Z,99.90
2019-03-26T03:57:29.079Z,99.90
2019-03-26T04:00:02.183Z,99.90
2019-03-26T04:02:34.985Z,99.90
2019-03-26T04:05:07.129Z,99.90
2019-03-26T04:07:38.737Z,99.90
2019-03-26T04:10:10.746Z,99.90
2019-03-26T04:12:42.323Z,99.90
2019-03-26T04:15:14.369Z,99.90
2019-03-26T04:17:45.960Z,99.90
2019-03-26T04:20:17.794Z,99.90
2019-03-26T04:22:49.399Z,99.90
2019-03-26T04:25:21.401Z,99.90
2019-03-26T04:27:53.017Z,99.90
2019-03-26T04:30:32.605Z,99.90
2019-03-26T04:33:04.213Z,99.90
2019-03-26T04:35:36.221Z,99.90
2019-03-26T04:38:07.897Z,99.90
2019-03-26T04:40:39.950Z,99.90
2019-03-26T04:43:11.569Z,99.90
2019-03-26T04:45:43.458Z,99.90
2019-03-26T04:48:15.071Z,99.90
2019-03-26T04:50:46.972Z,99.90
2019-03-26T04:53:18.600Z,99.90
2019-03-26T04:55:50.503Z,99.90
2019-03-26T04:58:22.101Z,99.90
2019-03-26T05:00:53.916Z,99.90
2019-03-26T05:03:25.501Z,99.90
2019-03-26T05:05:57.336Z,99.90
2019-03-26T05:08:28.947Z,99.90
2019-03-26T05:11:00.764Z,99.90
2019-03-26T05:13:32.415Z,99.90
2019-03-26T05:16:04.260Z,99.90
2019-03-26T05:18:35.880Z,99.90
2019-03-26T05:21:07.794Z,99.90
2019-03-26T05:23:39.456Z,99.90
2019-03-26T05:26:11.611Z,99.90
2019-03-26T05:28:43.314Z,99.90
2019-03-26T05:31:17.300Z,99.90
2019-03-26T05:33:48.943Z,99.90
2019-03-26T05:36:21.102Z,99.90
2019-03-26T05:38:52.758Z,99.90
2019-03-26T05:41:24.720Z,99.90
2019-03-26T05:43:56.342Z,99.90
2019-03-26T05:46:28.243Z,99.90
2019-03-26T05:48:59.836Z,99.90
2019-03-26T05:51:31.759Z,99.90
2019-03-26T05:54:03.500Z,99.90
2019-03-26T05:56:36.296Z,99.90
2019-03-26T05:59:18.913Z,99.90
2019-03-26T06:01:50.777Z,99.90
2019-03-26T06:04:22.441Z,99.90
2019-03-26T06:07:04.327Z,99.90
2019-03-26T06:09:28.108Z,99.90
2019-03-26T06:11:59.928Z,99.90
2019-03-26T06:14:31.688Z,99.90
2019-03-26T06:17:04.509Z,99.90
2019-03-26T06:19:36.191Z,99.90
2019-03-26T06:22:08.139Z,99.90
2019-03-26T06:24:40.324Z,99.90
2019-03-26T06:27:12.340Z,99.90
2019-03-26T06:29:43.986Z,99.90
2019-03-26T06:32:15.902Z,99.90
2019-03-26T06:34:47.662Z,99.90
2019-03-26T06:37:19.988Z,99.90
2019-03-26T06:39:51.654Z,99.90
2019-03-26T06:42:24.058Z,99.90
2019-03-26T06:44:55.760Z,99.90
2019-03-26T06:47:28.068Z,99.90
2019-03-26T06:50:00.137Z,99.90
2019-03-26T06:52:33.136Z,99.90
2019-03-26T06:55:05.056Z,99.90
2019-03-26T06:57:37.040Z,99.90
2019-03-26T07:00:10.248Z,99.90
2019-03-26T07:02:42.426Z,99.90
2019-03-26T07:05:14.233Z,99.90
2019-03-26T07:07:46.042Z,99.90
2019-03-26T07:10:20.790Z,99.90
2019-03-26T07:12:53.044Z,99.90
2019-03-26T07:15:24.869Z,99.90
2019-03-26T07:17:56.936Z,99.90
2019-03-26T07:20:28.657Z,99.90
2019-03-26T07:23:00.504Z,99.90
2019-03-26T07:25:32.138Z,99.90
2019-03-26T07:28:04.208Z,99.90
2019-03-26T07:30:43.834Z,99.90
2019-03-26T07:33:15.594Z,99.90
2019-03-26T07:35:47.232Z,99.90
2019-03-26T07:38:19.242Z,99.90
2019-03-26T07:40:51.052Z,99.90
2019-03-26T07:43:23.190Z,99.90
2019-03-26T07:45:54.880Z,99.90
2019-03-26T07:48:26.797Z,99.90
2019-03-26T07:51:10.780Z,99.90
2019-03-26T07:53:42.896Z,99.90
2019-03-26T07:56:15.832Z,99.90
2019-03-26T07:58:47.853Z,99.90
2019-03-26T08:01:19.652Z,99.90
2019-03-26T08:03:52.738Z,99.90
2019-03-26T08:06:24.432Z,99.90
2019-03-26T08:08:56.213Z,99.90
2019-03-26T08:11:27.950Z,99.90
2019-03-26T08:13:59.952Z,99.90
2019-03-26T08:16:31.587Z,99.90
2019-03-26T08:19:04.352Z,99.90
2019-03-26T08:21:37.352Z,99.90
2019-03-26T08:24:09.336Z,99.90
2019-03-26T08:26:41.119Z,99.90
2019-03-26T08:29:13.442Z,99.90
2019-03-26T08:31:45.040Z,99.90
2019-03-26T08:34:17.345Z,99.90
2019-03-26T08:36:48.927Z,99.90
2019-03-26T08:39:20.934Z,99.90
2019-03-26T08:41:52.677Z,99.90
2019-03-26T08:44:24.636Z,99.90
2019-03-26T08:46:56.344Z,99.90
2019-03-26T08:49:30.900Z,99.90
2019-03-26T08:52:02.152Z,99.90
2019-03-26T08:54:33.999Z,99.90
2019-03-26T08:57:05.580Z,99.90
2019-03-26T08:59:37.747Z,99.90
2019-03-26T09:02:09.686Z,99.90
2019-03-26T09:04:42.697Z,99.90
2019-03-26T09:07:14.490Z,99.90
2019-03-26T09:09:46.224Z,99.90
2019-03-26T09:12:17.881Z,99.90
2019-03-26T09:14:49.837Z,99.90
2019-03-26T09:17:21.559Z,99.90
2019-03-26T09:19:53.470Z,99.90
2019-03-26T09:22:25.760Z,99.90
2019-03-26T09:24:57.696Z,99.90
2019-03-26T09:27:29.492Z,99.90
2019-03-26T09:30:01.747Z,99.90
2019-03-26T09:32:33.919Z,99.90
2019-03-26T09:35:06.765Z,99.90
2019-03-26T09:37:38.637Z,99.90
2019-03-26T09:40:11.553Z,99.90
2019-03-26T09:42:43.391Z,99.90
2019-03-26T09:45:16.181Z,99.90
2019-03-26T09:47:47.953Z,99.90
2019-03-26T09:50:32.383Z,99.90
2019-03-26T09:53:05.258Z,99.90
2019-03-26T09:55:38.770Z,99.90
2019-03-26T09:58:10.495Z,99.90
2019-03-26T10:00:42.814Z,98.50
2019-03-26T10:03:15.102Z,99.10
2019-03-26T10:05:47.378Z,99.40
2019-03-26T10:08:19.050Z,99.30
2019-03-26T10:10:51.501Z,97.80
2019-03-26T10:13:23.696Z,97.50
2019-03-26T10:15:55.637Z,97.50
2019-03-26T10:18:27.759Z,97.70
2019-03-26T10:20:59.661Z,97.20
2019-03-26T10:23:31.355Z,98.00
2019-03-26T10:26:03.155Z,98.60
2019-03-26T10:28:34.871Z,97.00
2019-03-26T10:31:06.903Z,98.00
2019-03-26T10:33:42.343Z,98.60
2019-03-26T10:36:14.613Z,96.90
2019-03-26T10:38:46.439Z,96.90
2019-03-26T10:41:19.361Z,94.50
2019-03-26T10:43:50.940Z,94.20
2019-03-26T10:46:23.063Z,93.50
2019-03-26T10:48:56.219Z,91.80
2019-03-26T10:51:28.349Z,93.20
2019-03-26T10:54:00.140Z,91.30
2019-03-26T10:56:32.749Z,91.10
2019-03-26T10:59:04.881Z,90.50
2019-03-26T11:01:36.825Z,90.60
2019-03-26T11:04:08.621Z,89.70
2019-03-26T11:06:40.845Z,87.50
2019-03-26T11:09:23.129Z,87.10
2019-03-26T11:11:46.089Z,86.60
2019-03-26T11:14:18.076Z,85.90
2019-03-26T11:16:50.017Z,88.30
2019-03-26T11:19:21.724Z,90.60
2019-03-26T11:21:53.535Z,90.90
2019-03-26T11:24:25.154Z,88.40
2019-03-26T11:26:57.159Z,90.00
2019-03-26T11:29:29.111Z,89.40
2019-03-26T11:32:00.979Z,89.90
2019-03-26T11:34:32.698Z,89.30
2019-03-26T11:37:04.605Z,90.60
2019-03-26T11:39:36.252Z,86.30
2019-03-26T11:42:08.217Z,84.70
2019-03-26T11:44:39.857Z,88.70
2019-03-26T11:47:11.970Z,90.30
2019-03-26T11:49:43.747Z,90.80
2019-03-26T11:52:15.565Z,90.30
2019-03-26T11:54:47.167Z,85.40
2019-03-26T11:57:19.082Z,88.40
2019-03-26T11:59:50.754Z,92.30
2019-03-26T12:02:22.688Z,92.60
2019-03-26T12:04:54.405Z,91.70
2019-03-26T12:07:26.245Z,92.00
2019-03-26T12:09:57.909Z,93.40
2019-03-26T12:12:29.971Z,92.90
2019-03-26T12:15:02.107Z,93.90
2019-03-26T12:17:33.995Z,95.50
2019-03-26T12:20:07.106Z,94.80
2019-03-26T12:22:39.325Z,95.50
2019-03-26T12:25:11.835Z,93.90
2019-03-26T12:27:43.683Z,94.90
2019-03-26T12:30:18.288Z,93.60
2019-03-26T12:32:50.266Z,93.50
2019-03-26T12:35:29.425Z,92.70
2019-03-26T12:38:02.698Z,91.60
2019-03-26T12:40:34.471Z,90.50
2019-03-26T12:43:06.549Z,90.50
2019-03-26T12:45:39.343Z,86.60
2019-03-26T12:48:11.143Z,92.10
2019-03-26T12:50:42.853Z,87.70
2019-03-26T12:53:15.407Z,90.00
2019-03-26T12:55:46.994Z,87.00
2019-03-26T12:58:31.121Z,87.10
2019-03-26T13:00:52.340Z,89.00
2019-03-26T13:03:24.489Z,86.80
2019-03-26T13:05:56.130Z,86.80
2019-03-26T13:08:27.907Z,85.80
2019-03-26T13:10:59.558Z,81.10
2019-03-26T13:13:31.419Z,82.90
2019-03-26T13:16:03.174Z,85.00
2019-03-26T13:18:35.040Z,79.60
2019-03-26T13:21:06.655Z,80.70
2019-03-26T13:23:38.799Z,75.80
2019-03-26T13:26:10.552Z,73.70
2019-03-26T13:28:42.696Z,76.00
2019-03-26T13:31:15.670Z,75.10
2019-03-26T13:33:48.890Z,74.70
2019-03-26T13:36:20.516Z,72.50
2019-03-26T13:38:52.501Z,67.20
2019-03-26T13:41:24.108Z,69.90
2019-03-26T13:43:55.945Z,63.10
2019-03-26T13:46:27.536Z,69.90
2019-03-26T13:48:59.542Z,67.10
2019-03-26T13:51:31.263Z,63.90
2019-03-26T13:54:03.470Z,61.70
2019-03-26T13:56:35.059Z,58.40
2019-03-26T13:59:06.777Z,58.20
2019-03-26T14:01:38.432Z,58.40
2019-03-26T14:04:10.313Z,56.70
2019-03-26T14:06:41.937Z,56.80
2019-03-26T14:09:13.827Z,57.00
2019-03-26T14:11:45.443Z,55.00
2019-03-26T14:14:17.468Z,54.60
2019-03-26T14:16:49.597Z,55.30
2019-03-26T14:19:21.478Z,56.70
2019-03-26T14:21:53.213Z,54.60
2019-03-26T14:24:24.993Z,54.50
2019-03-26T14:26:56.584Z,55.30
2019-03-26T14:29:28.497Z,56.90
2019-03-26T14:32:00.142Z,55.80
2019-03-26T14:34:32.031Z,52.50
2019-03-26T14:37:03.638Z,52.50
2019-03-26T14:39:35.551Z,51.40
2019-03-26T14:42:07.554Z,51.00
2019-03-26T14:44:39.374Z,49.20
2019-03-26T14:47:10.979Z,51.70
2019-03-26T14:49:43.199Z,55.90
2019-03-26T14:52:14.885Z,55.40
2019-03-26T14:54:46.733Z,57.90
2019-03-26T14:57:18.315Z,57.70
2019-03-26T14:59:50.657Z,55.70
2019-03-26T15:02:41.016Z,55.00
2019-03-26T15:05:13.318Z,57.30
2019-03-26T15:07:45.198Z,61.10
2019-03-26T15:10:17.540Z,58.60
2019-03-26T15:12:49.178Z,58.20
2019-03-26T15:15:21.066Z,58.50
2019-03-26T15:17:52.833Z,55.70
2019-03-26T15:20:25.094Z,55.30
2019-03-26T15:22:58.221Z,56.60
2019-03-26T15:25:30.553Z,54.60
2019-03-26T15:28:02.233Z,52.90
2019-03-26T15:30:34.169Z,53.20
2019-03-26T15:33:06.887Z,53.10
2019-03-26T15:35:38.814Z,53.50
2019-03-26T15:38:10.439Z,54.10
2019-03-26T15:40:42.350Z,52.20
2019-03-26T15:43:14.385Z,53.60
2019-03-26T15:45:46.470Z,52.80
2019-03-26T15:48:18.125Z,53.40
2019-03-26T15:50:50.087Z,54.50
2019-03-26T15:53:21.799Z,54.50
2019-03-26T15:55:54.027Z,55.70
2019-03-26T15:58:25.764Z,56.40
2019-03-26T16:00:58.072Z,56.90
2019-03-26T16:03:29.722Z,56.60
2019-03-26T16:06:01.482Z,57.10
2019-03-26T16:08:35.879Z,56.40
2019-03-26T16:11:08.096Z,55.40
2019-03-26T16:13:39.959Z,56.10
2019-03-26T16:16:12.084Z,54.60
2019-03-26T16:18:44.015Z,54.70
2019-03-26T16:21:15.905Z,55.00
2019-03-26T16:23:47.551Z,54.10
2019-03-26T16:26:20.739Z,54.20
2019-03-26T16:28:52.742Z,54.10
2019-03-26T16:31:24.922Z,53.70
2019-03-26T16:33:56.669Z,53.40
2019-03-26T16:36:28.649Z,55.40
2019-03-26T16:39:00.374Z,54.00
2019-03-26T16:41:33.047Z,53.40
2019-03-26T16:44:04.849Z,52.70
2019-03-26T16:46:36.698Z,52.60
2019-03-26T16:49:08.312Z,52.70
2019-03-26T16:51:40.200Z,52.10
2019-03-26T16:54:11.993Z,52.00
2019-03-26T16:56:43.917Z,51.70
2019-03-26T16:59:15.597Z,51.80
2019-03-26T17:01:47.555Z,51.00
2019-03-26T17:04:19.730Z,50.20
2019-03-26T17:06:52.011Z,50.30
2019-03-26T17:09:23.716Z,49.20
2019-03-26T17:12:02.970Z,50.10
2019-03-26T17:14:29.215Z,51.00
2019-03-26T17:17:01.318Z,53.50
2019-03-26T17:19:33.097Z,54.70
2019-03-26T17:22:05.299Z,55.10
2019-03-26T17:24:37.296Z,57.10
2019-03-26T17:27:19.356Z,58.40
2019-03-26T17:29:51.137Z,60.30
2019-03-26T17:32:23.200Z,60.10
2019-03-26T17:34:54.815Z,61.80
2019-03-26T17:37:26.808Z,63.80
2019-03-26T17:39:59.030Z,65.80
2019-03-26T17:42:31.056Z,67.10
2019-03-26T17:45:02.889Z,69.60
2019-03-26T17:47:34.788Z,71.20
2019-03-26T17:50:06.915Z,72.40
2019-03-26T17:52:39.830Z,73.40
2019-03-26T17:55:12.064Z,74.50
2019-03-26T17:57:44.053Z,75.00
2019-03-26T18:00:17.976Z,76.30
2019-03-26T18:02:50.096Z,76.80
2019-03-26T18:05:29.088Z,77.40
2019-03-26T18:08:01.328Z,79.00
2019-03-26T18:10:33.052Z,78.70
2019-03-26T18:13:05.052Z,79.20
2019-03-26T18:15:36.698Z,80.20
2019-03-26T18:18:08.672Z,79.20
2019-03-26T18:20:40.623Z,80.10
2019-03-26T18:23:12.445Z,80.10
2019-03-26T18:25:55.316Z,81.60
2019-03-26T18:28:27.336Z,82.50
2019-03-26T18:30:59.001Z,82.40
2019-03-26T18:33:30.917Z,83.30
2019-03-26T18:36:02.547Z,83.80
2019-03-26T18:38:34.627Z,84.90
2019-03-26T18:41:06.279Z,86.20
2019-03-26T18:43:38.143Z,87.60
2019-03-26T18:46:09.835Z,88.90
2019-03-26T18:48:41.751Z,89.30
2019-03-26T18:51:13.489Z,90.50
2019-03-26T18:54:04.238Z,90.90
2019-03-26T18:56:36.038Z,91.20
2019-03-26T18:59:08.028Z,91.50
2019-03-26T19:01:39.744Z,91.70
2019-03-26T19:04:11.668Z,91.80
2019-03-26T19:06:54.766Z,92.10
2019-03-26T19:09:26.676Z,91.90
2019-03-26T19:11:58.319Z,91.20
2019-03-26T19:14:30.181Z,91.80
2019-03-26T19:17:01.796Z,92.10
2019-03-26T19:19:34.873Z,93.30
2019-03-26T19:22:06.634Z,93.40
2019-03-26T19:24:38.466Z,93.60
2019-03-26T19:27:10.162Z,96.00
2019-03-26T19:29:41.972Z,96.60
2019-03-26T19:32:13.732Z,96.00
2019-03-26T19:34:45.584Z,97.10
2019-03-26T19:37:17.236Z,96.90
2019-03-26T19:39:49.025Z,96.70
2019-03-26T19:42:20.676Z,97.10
2019-03-26T19:44:52.655Z,96.70
2019-03-26T19:47:24.706Z,96.40
2019-03-26T19:50:01.997Z,96.60
2019-03-26T19:52:33.782Z,96.20
2019-03-26T19:55:06.233Z,96.30
2019-03-26T19:57:37.960Z,97.70
2019-03-26T20:00:11.802Z,98.20
2019-03-26T20:02:43.501Z,98.00
2019-03-26T20:05:15.506Z,97.90
2019-03-26T20:07:47.358Z,97.30
2019-03-26T20:10:19.378Z,97.80
2019-03-26T20:12:51.220Z,97.80
2019-03-26T20:15:23.256Z,97.60
2019-03-26T20:17:55.028Z,97.70
2019-03-26T20:20:27.208Z,97.90
2019-03-26T20:22:58.977Z,98.10
2019-03-26T20:25:30.904Z,98.20
2019-03-26T20:28:02.702Z,98.00
2019-03-26T20:30:34.774Z,98.10
2019-03-26T20:33:06.502Z,98.40
2019-03-26T20:35:38.680Z,98.50
2019-03-26T20:38:10.453Z,99.20
2019-03-26T20:40:42.488Z,99.50
2019-03-26T20:43:14.255Z,99.70
2019-03-26T20:45:46.211Z,99.70
2019-03-26T20:48:17.865Z,99.90
2019-03-26T20:50:49.826Z,99.80
2019-03-26T20:53:21.674Z,99.90
2019-03-26T20:55:54.796Z,99.90
2019-03-26T20:58:26.884Z,99.90
2019-03-26T21:00:58.684Z,99.90
2019-03-26T21:03:31.596Z,99.90
2019-03-26T21:06:03.492Z,99.90
2019-03-26T21:08:35.200Z,99.90
2019-03-26T21:11:07.188Z,99.90
2019-03-26T21:13:50.199Z,99.90
2019-03-26T21:16:12.669Z,99.90
2019-03-26T21:18:44.342Z,99.90
2019-03-26T21:21:16.292Z,99.90
2019-03-26T21:23:47.979Z,99.90
2019-03-26T21:26:19.984Z,99.90
2019-03-26T21:28:51.767Z,99.90
2019-03-26T21:31:23.501Z,99.90
2019-03-26T21:33:55.872Z,99.90
2019-03-26T21:36:27.612Z,99.90
2019-03-26T21:38:59.318Z,99.90
2019-03-26T21:41:31.165Z,99.90
2019-03-26T21:44:04.514Z,99.90
2019-03-26T21:46:36.372Z,99.90
2019-03-26T21:49:08.016Z,99.90
2019-03-26T21:51:39.948Z,99.90
2019-03-26T21:54:11.622Z,99.90
2019-03-26T21:56:43.410Z,99.90
2019-03-26T21:59:15.160Z,99.90
2019-03-26T22:01:47.174Z,99.90
2019-03-26T22:04:18.888Z,99.90
2019-03-26T22:06:50.802Z,99.90
2019-03-26T22:09:22.392Z,99.90
2019-03-26T22:11:54.319Z,99.90
2019-03-26T22:14:25.912Z,99.90
2019-03-26T22:16:57.730Z,99.90
2019-03-26T22:19:29.324Z,99.90
2019-03-26T22:22:01.245Z,99.90
2019-03-26T22:24:33.108Z,99.90
2019-03-26T22:27:04.798Z,99.90
2019-03-26T22:29:36.408Z,99.90
2019-03-26T22:32:08.285Z,99.90
2019-03-26T22:34:39.904Z,99.90
2019-03-26T22:37:11.700Z,99.90
2019-03-26T22:39:43.594Z,99.90
2019-03-26T22:42:15.418Z,99.90
2019-03-26T22:44:47.047Z,99.90
2019-03-26T22:47:18.844Z,99.90
2019-03-26T22:49:50.443Z,99.90
2019-03-26T22:52:22.130Z,99.90
2019-03-26T22:54:53.842Z,99.90
2019-03-26T22:57:25.984Z,99.90
2019-03-26T22:59:57.640Z,99.90
2019-03-26T23:02:29.498Z,99.90
2019-03-26T23:05:01.160Z,99.90
2019-03-26T23:07:33.132Z,99.90
2019-03-26T23:10:05.558Z,99.90
2019-03-26T23:12:37.276Z,99.90
2019-03-26T23:15:16.857Z,99.90
2019-03-26T23:17:48.658Z,99.90
2019-03-26T23:20:20.332Z,99.90
2019-03-26T23:22:52.173Z,99.90
2019-03-26T23:25:23.789Z,99.90
2019-03-26T23:27:55.598Z,99.90
2019-03-26T23:30:28.441Z,99.90
2019-03-26T23:33:00.457Z,99.90
2019-03-26T23:35:32.170Z,99.90
2019-03-26T23:38:04.180Z,99.90
2019-03-26T23:40:35.826Z,99.90
2019-03-26T23:43:07.872Z,99.90
2019-03-26T23:45:45.670Z,99.90
2019-03-26T23:48:17.868Z,99.90
2019-03-26T23:50:49.686Z,99.90
2019-03-26T23:53:21.596Z,99.90
2019-03-26T23:55:53.260Z,99.90
2019-03-26T23:58:25.419Z,99.90
